Time;durP1;ratioP1;P1;durP2;ratioP2;P2;SDS_P1;SDS_P2;PMS_P1;PMS_P2;Temp;Humidity;BMP_temperature;BMP_pressure;BME280_temperature;BME280_humidity;BME280_pressure;Samples;Min_cycle;Max_cycle;Signal;HPM_P1;HPM_P2
2024/03/17 00:00:14;;;;;;;4.57;3.23;;;11.80;99.00;;;;;;5100457;28;20462;-28
2024/03/17 00:02:42;;;;;;;5.83;3.10;;;11.80;99.00;;;;;;5080298;28;20467;-22
2024/03/17 00:05:08;;;;;;;5.07;3.33;;;11.80;99.00;;;;;;5077109;28;21236;-23
2024/03/17 00:07:36;;;;;;;4.30;3.00;;;11.80;99.00;;;;;;5078323;28;20437;-23
2024/03/17 00:10:03;;;;;;;4.90;3.67;;;11.70;98.90;;;;;;5076797;28;20424;-23
2024/03/17 00:12:32;;;;;;;5.80;3.27;;;11.70;98.90;;;;;;5080212;28;20460;-24
2024/03/17 00:14:58;;;;;;;3.90;3.17;;;11.70;98.90;;;;;;5080633;28;20484;-23
2024/03/17 00:17:24;;;;;;;4.60;3.00;;;11.70;98.90;;;;;;5080056;28;21189;-26
2024/03/17 00:19:50;;;;;;;4.97;2.90;;;11.70;98.90;;;;;;5081467;28;20993;-23
2024/03/17 00:22:19;;;;;;;4.30;2.93;;;11.70;98.90;;;;;;5084561;28;20832;-25
2024/03/17 00:24:46;;;;;;;5.30;3.23;;;11.70;98.90;;;;;;5102575;28;20435;-24
2024/03/17 00:27:13;;;;;;;3.70;3.00;;;11.70;98.90;;;;;;5102536;28;20455;-22
2024/03/17 00:29:41;;;;;;;5.03;3.23;;;11.70;98.90;;;;;;5102544;28;20512;-24
2024/03/17 00:32:07;;;;;;;3.83;2.47;;;11.70;98.90;;;;;;5101995;28;20528;-24
2024/03/17 00:34:33;;;;;;;4.27;3.43;;;11.70;98.90;;;;;;5069852;28;20555;-24
2024/03/17 00:36:59;;;;;;;6.83;3.23;;;11.60;98.80;;;;;;5063650;28;21284;-25
2024/03/17 00:39:25;;;;;;;4.67;3.60;;;11.60;98.80;;;;;;5098360;28;20789;-25
2024/03/17 00:41:51;;;;;;;5.03;2.70;;;11.60;98.80;;;;;;5102223;28;20245;-23
2024/03/17 00:44:18;;;;;;;5.43;2.90;;;11.60;98.80;;;;;;5102813;28;21117;-23
2024/03/17 00:46:44;;;;;;;3.40;2.60;;;11.60;98.70;;;;;;5102113;28;20443;-25
2024/03/17 00:49:10;;;;;;;4.30;3.17;;;11.60;98.80;;;;;;5079077;28;20567;-25
2024/03/17 00:51:36;;;;;;;4.27;3.87;;;11.60;98.80;;;;;;5102240;28;21085;-25
2024/03/17 00:54:02;;;;;;;5.20;3.60;;;11.60;98.70;;;;;;5083409;28;20466;-23
2024/03/17 00:56:29;;;;;;;3.80;2.70;;;11.60;98.70;;;;;;5102618;28;20452;-25
2024/03/17 00:58:55;;;;;;;3.97;3.20;;;11.60;98.80;;;;;;5083916;28;20500;-23
2024/03/17 01:01:20;;;;;;;3.60;3.00;;;11.50;98.70;;;;;;5101487;28;21052;-24
2024/03/17 01:03:49;;;;;;;9.10;3.20;;;11.50;98.80;;;;;;5101650;28;20428;-25
2024/03/17 01:06:15;;;;;;;3.57;3.10;;;11.50;98.70;;;;;;5102345;28;20436;-25
2024/03/17 01:08:41;;;;;;;4.80;2.80;;;11.50;98.80;;;;;;5101650;28;20427;-25
2024/03/17 01:11:14;;;;;;;4.13;2.70;;;11.50;98.70;;;;;;5083706;28;20476;-23
2024/03/17 01:13:42;;;;;;;4.60;3.00;;;11.50;98.70;;;;;;5101548;28;20562;-24
2024/03/17 01:16:11;;;;;;;5.20;3.43;;;11.50;98.70;;;;;;5101771;28;21321;-25
2024/03/17 01:18:37;;;;;;;5.07;3.93;;;11.50;98.70;;;;;;5102090;28;20818;-25
2024/03/17 01:21:03;;;;;;;4.30;3.57;;;11.50;98.70;;;;;;5101608;28;21056;-22
2024/03/17 01:23:30;;;;;;;4.13;3.03;;;11.50;98.70;;;;;;5101267;28;20480;-26
2024/03/17 01:25:56;;;;;;;5.80;4.73;;;11.50;98.70;;;;;;5102248;28;20420;-22
2024/03/17 01:28:24;;;;;;;4.27;3.10;;;11.40;98.70;;;;;;5083880;28;20432;-28
2024/03/17 01:30:51;;;;;;;5.50;3.63;;;11.40;98.70;;;;;;5101822;28;20424;-25
2024/03/17 01:33:17;;;;;;;4.43;3.03;;;11.40;98.70;;;;;;5082830;28;21045;-28
2024/03/17 01:35:44;;;;;;;4.40;3.20;;;11.40;98.70;;;;;;5100975;28;20436;-26
2024/03/17 01:38:11;;;;;;;4.43;3.10;;;11.40;98.60;;;;;;5062088;28;20886;-25
2024/03/17 01:40:38;;;;;;;4.67;3.03;;;11.40;98.70;;;;;;5063906;28;20437;-24
2024/03/17 01:43:04;;;;;;;6.20;3.50;;;11.40;98.70;;;;;;5061535;28;20419;-24
2024/03/17 01:45:34;;;;;;;3.97;3.17;;;11.40;98.70;;;;;;5080201;28;20434;-23
2024/03/17 01:48:09;;;;;;;5.80;3.23;;;11.40;98.70;;;;;;5048877;28;20442;-25
2024/03/17 01:50:36;;;;;;;5.90;3.80;;;11.40;98.70;;;;;;5082046;28;20503;-26
2024/03/17 01:53:06;;;;;;;3.80;2.47;;;11.30;98.60;;;;;;5099862;28;20463;-24
2024/03/17 01:55:34;;;;;;;7.30;3.70;;;11.30;98.70;;;;;;5065023;28;20432;-24
2024/03/17 01:58:07;;;;;;;7.10;3.53;;;11.30;98.60;;;;;;5081351;28;20432;-22
2024/03/17 02:00:36;;;;;;;3.97;2.93;;;11.30;98.70;;;;;;5049220;28;20444;-23
2024/03/17 02:03:09;;;;;;;4.60;2.63;;;11.30;98.70;;;;;;5032399;28;20424;-24
2024/03/17 02:05:41;;;;;;;3.23;2.73;;;11.30;98.70;;;;;;5049403;28;20432;-22
2024/03/17 02:08:07;;;;;;;6.77;3.10;;;11.30;98.70;;;;;;5078066;28;20529;-25
2024/03/17 02:10:39;;;;;;;4.87;2.73;;;11.30;98.70;;;;;;5078878;28;21156;-24
2024/03/17 02:13:05;;;;;;;3.70;3.30;;;11.30;98.70;;;;;;5077924;28;20507;-24
2024/03/17 02:15:32;;;;;;;4.43;3.20;;;11.20;98.60;;;;;;5096667;28;20432;-24
2024/03/17 02:17:58;;;;;;;4.13;2.83;;;11.30;98.70;;;;;;5047987;28;20504;-23
2024/03/17 02:20:55;;;;;;;4.33;3.07;;;11.20;98.60;;;;;;5099835;28;20412;-23
2024/03/17 02:23:12;;;;;;;9.00;3.60;;;11.20;98.90;;;;;;5067375;28;20504;-26
2024/03/17 02:25:40;;;;;;;4.10;3.00;;;11.20;98.60;;;;;;5049348;28;20456;-26
2024/03/17 02:28:07;;;;;;;4.70;3.10;;;11.20;98.60;;;;;;5081577;28;20436;-25
2024/03/17 02:30:35;;;;;;;3.53;3.20;;;11.20;98.60;;;;;;5061507;28;20421;-26
2024/03/17 02:33:03;;;;;;;4.50;3.37;;;11.20;98.60;;;;;;5047523;28;20471;-26
2024/03/17 02:35:29;;;;;;;4.73;3.33;;;11.20;98.60;;;;;;5100396;28;20443;-27
2024/03/17 02:37:56;;;;;;;4.03;3.20;;;11.20;98.50;;;;;;5078187;28;20469;-27
2024/03/17 02:40:24;;;;;;;3.73;3.23;;;11.20;98.60;;;;;;5027863;28;20470;-25
2024/03/17 02:42:51;;;;;;;4.23;2.80;;;11.20;98.50;;;;;;5076374;28;20453;-25
2024/03/17 02:45:21;;;;;;;4.20;2.87;;;11.10;98.50;;;;;;5077718;28;20493;-21
2024/03/17 02:47:52;;;;;;;5.37;3.37;;;11.10;98.50;;;;;;5078475;28;20448;-24
2024/03/17 02:50:20;;;;;;;7.10;3.83;;;11.10;98.50;;;;;;5080490;28;20448;-25
2024/03/17 02:52:46;;;;;;;3.50;3.20;;;11.10;98.50;;;;;;5098123;28;20467;-26
2024/03/17 02:55:14;;;;;;;4.50;2.77;;;11.10;98.50;;;;;;5099083;28;20504;-24
2024/03/17 02:57:40;;;;;;;5.13;3.30;;;11.10;98.50;;;;;;5077255;28;20449;-22
2024/03/17 03:00:12;;;;;;;5.70;3.40;;;11.10;98.50;;;;;;5061384;28;20408;-24
2024/03/17 03:02:39;;;;;;;4.00;3.30;;;11.10;98.40;;;;;;5079958;28;20439;-25
2024/03/17 03:05:10;;;;;;;4.20;3.00;;;11.10;98.50;;;;;;5077455;28;20931;-25
2024/03/17 03:07:38;;;;;;;4.63;2.67;;;11.10;98.50;;;;;;5080775;28;20543;-24
2024/03/17 03:10:05;;;;;;;3.97;3.10;;;11.10;98.50;;;;;;5077603;28;20830;-24
2024/03/17 03:12:32;;;;;;;4.27;3.27;;;11.00;98.40;;;;;;5060444;28;20457;-24
2024/03/17 03:14:58;;;;;;;6.00;3.67;;;11.00;98.40;;;;;;5048028;28;20490;-23
2024/03/17 03:17:25;;;;;;;7.10;3.50;;;11.00;98.40;;;;;;5077815;28;20429;-24
2024/03/17 03:19:52;;;;;;;5.40;3.50;;;11.00;98.50;;;;;;5035659;28;20518;-26
2024/03/17 03:22:21;;;;;;;7.53;3.47;;;11.00;98.40;;;;;;5097598;28;20443;-25
2024/03/17 03:24:47;;;;;;;4.37;3.30;;;11.00;98.50;;;;;;5099282;28;20412;-25
2024/03/17 03:27:14;;;;;;;5.40;3.43;;;11.00;98.50;;;;;;5098434;28;20445;-23
2024/03/17 03:29:45;;;;;;;7.67;3.93;;;11.00;98.50;;;;;;5099233;28;20516;-24
2024/03/17 03:32:11;;;;;;;4.93;3.87;;;11.00;98.50;;;;;;5098394;28;20455;-24
2024/03/17 03:34:37;;;;;;;4.67;3.20;;;11.00;98.50;;;;;;5099172;28;20467;-24
2024/03/17 03:37:03;;;;;;;3.87;3.20;;;11.00;98.50;;;;;;5080339;28;21311;-22
2024/03/17 03:39:31;;;;;;;4.50;3.20;;;10.90;98.40;;;;;;5099015;28;20428;-25
2024/03/17 03:41:58;;;;;;;5.27;3.40;;;10.90;98.40;;;;;;5099591;28;20412;-25
2024/03/17 03:44:28;;;;;;;4.90;3.03;;;10.90;98.40;;;;;;5061724;28;20444;-24
2024/03/17 03:47:00;;;;;;;4.70;3.70;;;10.90;98.40;;;;;;5083394;28;20513;-22
2024/03/17 03:49:30;;;;;;;5.20;3.13;;;10.90;98.40;;;;;;5100599;28;20421;-25
2024/03/17 03:51:57;;;;;;;3.83;3.20;;;10.90;98.50;;;;;;5082002;28;20459;-25
2024/03/17 03:54:24;;;;;;;5.00;3.70;;;10.90;98.50;;;;;;5102162;28;20950;-23
2024/03/17 03:56:54;;;;;;;4.10;3.30;;;10.90;98.50;;;;;;5088673;28;20534;-25
2024/03/17 03:59:20;;;;;;;5.27;3.50;;;10.90;98.50;;;;;;5071968;28;20510;-23
2024/03/17 04:01:52;;;;;;;3.90;2.87;;;10.90;98.50;;;;;;5067560;28;20421;-27
2024/03/17 04:04:17;;;;;;;4.43;3.43;;;10.90;98.50;;;;;;5101995;28;21841;-25
2024/03/17 04:06:44;;;;;;;4.67;3.50;;;10.90;98.50;;;;;;5068658;28;20436;-28
2024/03/17 04:09:12;;;;;;;4.60;3.53;;;10.90;98.50;;;;;;5059599;28;20455;-25
2024/03/17 04:11:38;;;;;;;6.17;3.70;;;10.80;98.50;;;;;;5102832;28;20428;-26
2024/03/17 04:14:06;;;;;;;4.23;3.27;;;10.80;98.50;;;;;;5083490;28;20531;-25
2024/03/17 04:16:33;;;;;;;5.20;3.77;;;10.80;98.50;;;;;;5101994;28;20414;-25
2024/03/17 04:18:59;;;;;;;5.80;3.70;;;10.80;98.50;;;;;;5083455;28;20449;-26
2024/03/17 04:21:28;;;;;;;4.10;3.63;;;10.80;98.50;;;;;;5097583;28;20573;-25
2024/03/17 04:24:03;;;;;;;3.50;3.20;;;10.80;98.50;;;;;;5098789;28;21333;-25
2024/03/17 04:26:29;;;;;;;4.37;3.37;;;10.80;98.50;;;;;;5102328;28;20440;-26
2024/03/17 04:28:55;;;;;;;4.90;3.17;;;10.80;98.50;;;;;;5083234;28;20432;-27
2024/03/17 04:31:23;;;;;;;3.53;3.20;;;10.80;98.60;;;;;;5098586;28;20939;-26
2024/03/17 04:33:51;;;;;;;4.30;3.73;;;10.80;98.60;;;;;;5065133;28;20475;-26
2024/03/17 04:36:17;;;;;;;6.30;3.90;;;10.70;98.50;;;;;;5100623;28;20450;-26
2024/03/17 04:38:47;;;;;;;5.40;3.40;;;10.70;98.50;;;;;;5096866;28;21055;-26
2024/03/17 04:41:18;;;;;;;4.20;3.33;;;10.70;98.50;;;;;;5080656;28;20440;-26
2024/03/17 04:43:46;;;;;;;6.07;3.43;;;10.70;98.60;;;;;;5080249;28;20494;-25
2024/03/17 04:46:13;;;;;;;4.87;3.10;;;10.70;98.60;;;;;;5101142;28;21325;-24
2024/03/17 04:48:43;;;;;;;4.83;3.67;;;10.70;98.60;;;;;;5049859;28;20456;-27
2024/03/17 04:51:15;;;;;;;4.47;3.53;;;10.70;98.60;;;;;;5046680;28;20421;-25
2024/03/17 04:53:41;;;;;;;5.60;4.20;;;10.70;98.60;;;;;;5065504;28;20459;-26
2024/03/17 04:56:08;;;;;;;4.57;3.33;;;10.70;98.60;;;;;;5100720;28;20438;-27
2024/03/17 04:58:35;;;;;;;5.00;3.43;;;10.70;98.60;;;;;;5079784;28;20416;-26
2024/03/17 05:01:08;;;;;;;3.87;3.47;;;10.60;98.50;;;;;;5098555;28;20957;-25
2024/03/17 05:03:35;;;;;;;6.73;3.53;;;10.60;98.60;;;;;;5082154;28;20444;-27
2024/03/17 05:06:03;;;;;;;4.00;3.60;;;10.60;98.60;;;;;;5100087;28;20428;-26
2024/03/17 05:08:30;;;;;;;5.63;3.20;;;10.60;98.60;;;;;;5082749;28;20428;-25
2024/03/17 05:11:00;;;;;;;4.03;3.63;;;10.60;98.60;;;;;;5100659;28;20420;-28
2024/03/17 05:13:27;;;;;;;5.70;3.30;;;10.60;98.60;;;;;;5099832;28;20459;-26
2024/03/17 05:15:54;;;;;;;5.03;3.57;;;10.60;98.60;;;;;;5100181;28;20480;-26
2024/03/17 05:18:22;;;;;;;5.57;3.80;;;10.60;98.60;;;;;;5081119;28;20421;-25
2024/03/17 05:21:00;;;;;;;5.33;3.77;;;10.60;98.70;;;;;;5098105;28;20520;-26
2024/03/17 05:23:36;;;;;;;5.93;3.30;;;10.60;98.70;;;;;;5101518;28;20428;-26
2024/03/17 05:26:06;;;;;;;4.40;3.17;;;10.60;98.80;;;;;;5063923;28;21223;-26
2024/03/17 05:28:32;;;;;;;4.30;3.90;;;10.60;98.80;;;;;;5078796;28;20511;-26
2024/03/17 05:30:58;;;;;;;4.70;3.90;;;10.60;98.80;;;;;;5098358;28;21210;-24
2024/03/17 05:33:26;;;;;;;3.93;3.47;;;10.60;98.80;;;;;;5064837;28;20448;-25
2024/03/17 05:36:03;;;;;;;3.70;3.30;;;10.60;98.80;;;;;;5108932;22;20430;31
2024/03/17 05:38:30;;;;;;;4.27;3.87;;;10.50;98.80;;;;;;5067621;28;20559;-84
2024/03/17 05:40:56;;;;;;;4.63;3.33;;;10.50;98.80;;;;;;5081593;28;20849;-84
2024/03/17 05:43:29;;;;;;;5.90;4.53;;;10.50;98.80;;;;;;5072292;28;20437;-84
2024/03/17 05:46:00;;;;;;;4.43;3.50;;;10.50;98.80;;;;;;5077710;28;20477;-85
2024/03/17 05:48:29;;;;;;;4.20;3.43;;;10.50;98.80;;;;;;5086248;28;20425;-85
2024/03/17 05:50:58;;;;;;;4.13;3.63;;;10.50;98.90;;;;;;5073898;28;20442;-85
2024/03/17 05:53:24;;;;;;;5.87;4.00;;;10.50;98.90;;;;;;5030847;28;20484;-85
2024/03/17 05:55:50;;;;;;;6.33;3.30;;;10.50;99.00;;;;;;5087426;28;20484;-84
2024/03/17 05:58:16;;;;;;;4.93;3.70;;;10.50;99.00;;;;;;5059502;28;20541;-84
2024/03/17 06:00:43;;;;;;;3.97;3.50;;;10.50;99.00;;;;;;5070823;28;20437;-84
2024/03/17 06:03:10;;;;;;;3.50;3.20;;;10.50;99.00;;;;;;5065492;28;20446;-84
2024/03/17 06:05:37;;;;;;;4.00;3.30;;;10.40;99.00;;;;;;5069024;28;20517;-82
2024/03/17 06:08:05;;;;;;;4.13;3.30;;;10.50;99.00;;;;;;5058437;28;20451;-82
2024/03/17 06:10:35;;;;;;;4.13;3.20;;;10.40;99.00;;;;;;5067477;28;20520;-83
2024/03/17 06:13:01;;;;;;;4.70;3.63;;;10.50;99.00;;;;;;5052345;28;20517;-82
2024/03/17 06:15:27;;;;;;;3.50;3.20;;;10.50;99.10;;;;;;5075319;28;20889;-81
2024/03/17 06:17:54;;;;;;;6.93;3.80;;;10.50;99.10;;;;;;5075021;28;20435;-84
2024/03/17 06:20:21;;;;;;;3.30;3.00;;;10.40;99.00;;;;;;5046402;28;20929;-84
2024/03/17 06:22:47;;;;;;;4.80;3.67;;;10.40;99.10;;;;;;5084140;28;20452;-83
2024/03/17 06:25:16;;;;;;;5.80;3.40;;;10.40;99.10;;;;;;5056596;28;20972;-83
2024/03/17 06:27:42;;;;;;;4.43;4.03;;;10.40;99.10;;;;;;5067869;28;21196;-83
2024/03/17 06:30:14;;;;;;;7.50;3.57;;;10.40;99.20;;;;;;5037261;28;20433;-83
2024/03/17 06:32:41;;;;;;;5.20;4.23;;;10.40;99.20;;;;;;5074498;28;20460;-84
2024/03/17 06:35:08;;;;;;;2.97;2.43;;;10.40;99.10;;;;;;5079108;28;20525;-84
2024/03/17 06:37:35;;;;;;;5.10;3.47;;;10.40;99.10;;;;;;5079374;28;20562;-84
2024/03/17 06:40:03;;;;;;;3.77;2.90;;;10.40;99.10;;;;;;5048626;28;20459;-84
2024/03/17 06:42:32;;;;;;;3.10;2.63;;;10.40;99.10;;;;;;5046283;28;20434;-84
2024/03/17 06:45:00;;;;;;;3.63;3.03;;;10.40;99.20;;;;;;5050823;28;20433;-83
2024/03/17 06:47:29;;;;;;;4.33;3.10;;;10.40;99.20;;;;;;5058158;28;21042;-81
2024/03/17 06:49:57;;;;;;;3.83;3.40;;;10.40;99.20;;;;;;5055463;28;20436;-84
2024/03/17 06:52:23;;;;;;;3.37;2.87;;;10.40;99.20;;;;;;5068859;28;20799;-84
2024/03/17 06:54:52;;;;;;;2.87;2.53;;;10.40;99.20;;;;;;5053628;28;20441;-84
2024/03/17 06:57:21;;;;;;;6.50;3.53;;;10.40;99.20;;;;;;5053204;28;20433;-83
2024/03/17 06:59:49;;;;;;;5.57;2.87;;;10.40;99.20;;;;;;5069800;28;20436;-84
2024/03/17 07:02:17;;;;;;;4.23;3.10;;;10.40;99.20;;;;;;5086691;28;20417;-84
2024/03/17 07:04:46;;;;;;;3.50;2.90;;;10.40;99.20;;;;;;5056455;28;20194;-83
2024/03/17 07:07:14;;;;;;;6.13;2.60;;;10.40;99.20;;;;;;5071586;28;20436;-83
2024/03/17 07:09:41;;;;;;;3.67;3.00;;;10.40;99.10;;;;;;5049685;28;20441;-82
2024/03/17 07:12:08;;;;;;;3.50;2.90;;;10.40;99.10;;;;;;5059473;28;20968;-84
2024/03/17 07:14:34;;;;;;;5.57;3.03;;;10.40;99.10;;;;;;5036742;28;20495;-83
2024/03/17 07:17:00;;;;;;;4.07;2.87;;;10.40;99.10;;;;;;5078285;28;20420;-84
2024/03/17 07:19:28;;;;;;;3.53;3.13;;;10.40;99.10;;;;;;5065452;28;20790;-85
2024/03/17 07:21:54;;;;;;;2.70;2.50;;;10.40;99.10;;;;;;5046884;28;20450;-84
2024/03/17 07:24:23;;;;;;;3.87;2.67;;;10.50;99.20;;;;;;5065504;28;20413;-84
2024/03/17 07:26:49;;;;;;;2.57;2.37;;;10.40;99.10;;;;;;5083040;28;20441;-82
2024/03/17 07:29:16;;;;;;;3.70;2.67;;;10.40;99.20;;;;;;5026172;28;20623;-84
2024/03/17 07:31:44;;;;;;;3.07;2.77;;;10.40;99.10;;;;;;5065542;28;20464;-84
2024/03/17 07:34:10;;;;;;;6.43;2.73;;;10.50;99.20;;;;;;5074441;28;20488;-84
2024/03/17 07:36:45;;;;;;;3.80;2.83;;;10.40;99.10;;;;;;5065778;28;20447;-83
2024/03/17 07:39:12;;;;;;;2.80;2.60;;;10.50;99.20;;;;;;5077888;28;20558;-83
2024/03/17 07:42:03;;;;;;;3.50;2.70;;;10.50;99.20;;;;;;5067688;28;20444;-82
2024/03/17 07:44:34;;;;;;;3.07;2.53;;;10.40;99.10;;;;;;5054132;28;20871;-83
2024/03/17 07:47:03;;;;;;;2.93;2.37;;;10.40;99.10;;;;;;5055226;28;20884;-82
2024/03/17 07:49:32;;;;;;;2.90;2.60;;;10.50;99.20;;;;;;5082551;28;21084;-83
2024/03/17 07:52:03;;;;;;;2.83;2.50;;;10.40;99.10;;;;;;5080636;28;20430;-84
2024/03/17 07:54:29;;;;;;;3.83;2.90;;;10.40;99.10;;;;;;5071268;28;20764;-83
2024/03/17 07:56:57;;;;;;;2.53;2.33;;;10.50;99.20;;;;;;5085677;28;20443;-84
2024/03/17 07:59:23;;;;;;;5.40;3.20;;;10.50;99.10;;;;;;5051188;28;20437;-84
2024/03/17 08:01:50;;;;;;;3.77;2.60;;;10.50;99.10;;;;;;5067266;28;20441;-84
2024/03/17 08:04:22;;;;;;;3.10;2.80;;;10.50;99.10;;;;;;5074868;28;20218;-84
2024/03/17 08:06:52;;;;;;;4.20;3.80;;;10.50;99.10;;;;;;5077240;28;20424;-84
2024/03/17 08:09:18;;;;;;;6.33;3.77;;;10.50;99.00;;;;;;5049589;28;20460;-84
2024/03/17 08:11:46;;;;;;;4.03;2.40;;;10.50;99.00;;;;;;5089610;28;20448;-84
2024/03/17 08:14:14;;;;;;;3.17;2.87;;;10.50;99.00;;;;;;5093110;28;20246;-83
2024/03/17 08:16:43;;;;;;;3.00;2.70;;;10.50;99.00;;;;;;5071436;28;20741;-84
2024/03/17 08:19:08;;;;;;;3.57;3.03;;;10.50;99.00;;;;;;5088974;28;20437;-84
2024/03/17 08:21:34;;;;;;;4.00;2.27;;;10.50;99.10;;;;;;5078934;28;20675;-84
2024/03/17 08:24:22;;;;;;;5.90;2.63;;;10.50;99.00;;;;;;5080904;28;20442;-84
2024/03/17 08:26:48;;;;;;;6.60;3.00;;;10.50;99.10;;;;;;5047475;28;20433;-84
2024/03/17 08:29:22;;;;;;;3.33;2.73;;;10.50;98.90;;;;;;5076913;28;20444;-84
2024/03/17 08:31:49;;;;;;;3.97;3.23;;;10.50;98.70;;;;;;5081153;28;20433;-82
2024/03/17 08:34:17;;;;;;;7.57;3.10;;;10.50;98.70;;;;;;5053387;28;20957;-84
2024/03/17 08:36:45;;;;;;;3.17;2.80;;;10.50;98.60;;;;;;5058323;28;20450;-84
2024/03/17 08:39:14;;;;;;;6.67;3.23;;;10.50;98.50;;;;;;5109505;28;20505;-85
2024/03/17 08:41:40;;;;;;;6.27;3.13;;;10.50;98.40;;;;;;5079321;28;20445;-82
2024/03/17 08:44:13;;;;;;;4.00;3.20;;;10.50;98.40;;;;;;5070012;28;20432;-85
2024/03/17 08:46:44;;;;;;;4.83;3.17;;;10.50;98.40;;;;;;5068097;28;20538;-85
2024/03/17 08:49:10;;;;;;;4.27;3.07;;;10.50;98.50;;;;;;5036614;28;20502;-86
2024/03/17 08:51:36;;;;;;;4.90;3.50;;;10.60;98.50;;;;;;5048229;28;20553;-82
2024/03/17 08:54:01;;;;;;;5.47;3.30;;;10.60;98.50;;;;;;5064595;28;20254;-82
2024/03/17 08:56:27;;;;;;;4.20;2.73;;;10.60;98.60;;;;;;5068003;28;20450;-84
2024/03/17 08:58:56;;;;;;;3.87;2.70;;;10.60;98.60;;;;;;5068828;28;20510;-84
2024/03/17 09:01:23;;;;;;;4.20;3.40;;;10.60;98.70;;;;;;5058287;28;20434;-82
2024/03/17 09:03:52;;;;;;;3.80;2.97;;;10.60;98.70;;;;;;5087272;28;20453;-85
2024/03/17 09:06:19;;;;;;;3.70;3.00;;;10.60;98.70;;;;;;5043830;28;20504;-80
2024/03/17 09:08:45;;;;;;;3.00;2.60;;;10.60;98.80;;;;;;5080497;28;20435;-83
2024/03/17 09:11:14;;;;;;;3.87;2.70;;;10.70;98.90;;;;;;5060606;28;20441;-84
2024/03/17 09:13:40;;;;;;;4.70;3.00;;;10.70;98.90;;;;;;5085934;28;20472;-84
2024/03/17 09:16:11;;;;;;;3.50;3.20;;;10.70;98.90;;;;;;5066103;28;20457;-83
2024/03/17 09:18:37;;;;;;;4.97;2.67;;;10.70;99.00;;;;;;5079827;28;20417;-84
2024/03/17 09:21:07;;;;;;;3.73;2.33;;;10.70;99.00;;;;;;5048641;28;20448;-82
2024/03/17 09:23:39;;;;;;;4.20;2.97;;;10.70;99.30;;;;;;5077195;28;20417;-83
2024/03/17 09:26:11;;;;;;;2.97;2.30;;;10.70;99.00;;;;;;5056940;28;20436;-83
2024/03/17 09:28:37;;;;;;;3.17;2.87;;;10.70;99.10;;;;;;5088670;28;20445;-83
2024/03/17 09:31:06;;;;;;;5.23;2.67;;;10.80;99.20;;;;;;5055579;28;20502;-83
2024/03/17 09:33:35;;;;;;;4.67;2.67;;;10.80;99.20;;;;;;5076131;28;20476;-82
2024/03/17 09:36:06;;;;;;;5.97;2.33;;;10.80;99.20;;;;;;5082037;28;20433;-82
2024/03/17 09:38:33;;;;;;;2.80;2.43;;;10.80;99.20;;;;;;5072358;28;20433;-81
2024/03/17 09:41:00;;;;;;;3.10;2.80;;;10.80;99.20;;;;;;5077140;28;20499;-82
2024/03/17 09:43:34;;;;;;;3.30;2.53;;;10.80;99.20;;;;;;5069284;28;20417;-83
2024/03/17 09:46:07;;;;;;;2.87;2.57;;;10.80;99.20;;;;;;5059087;28;20449;-83
2024/03/17 09:48:38;;;;;;;4.60;3.03;;;10.80;99.20;;;;;;5071554;28;20759;-84
2024/03/17 09:51:06;;;;;;;2.60;2.40;;;10.90;99.30;;;;;;5091390;28;20986;-83
2024/03/17 09:53:35;;;;;;;2.60;2.40;;;10.80;99.20;;;;;;5073755;28;20460;-83
2024/03/17 09:56:15;;;;;;;2.60;2.30;;;10.90;99.30;;;;;;5054174;28;20536;-83
2024/03/17 09:58:42;;;;;;;2.63;2.40;;;10.90;99.30;;;;;;5057656;28;20532;-85
2024/03/17 10:01:09;;;;;;;2.53;2.30;;;10.90;99.40;;;;;;5071667;28;20749;-85
2024/03/17 10:03:45;;;;;;;3.50;2.33;;;10.90;99.30;;;;;;5079790;28;20425;-81
2024/03/17 10:06:15;;;;;;;3.83;2.60;;;10.90;99.30;;;;;;5058903;28;20423;-84
2024/03/17 10:08:47;;;;;;;2.30;2.10;;;11.00;99.30;;;;;;5070826;28;20413;-83
2024/03/17 10:11:15;;;;;;;2.93;2.63;;;11.00;99.30;;;;;;5066153;28;20793;-84
2024/03/17 10:13:43;;;;;;;2.87;2.37;;;11.00;99.30;;;;;;5071023;28;20483;-84
2024/03/17 10:16:31;;;;;;;2.40;2.20;;;11.00;99.30;;;;;;5052631;28;20448;-84
2024/03/17 10:19:16;;;;;;;2.70;2.30;;;11.00;99.30;;;;;;5077591;28;20425;-84
2024/03/17 10:21:47;;;;;;;6.80;2.30;;;11.00;99.30;;;;;;5051975;28;20442;-81
2024/03/17 10:24:23;;;;;;;2.60;2.30;;;11.10;99.30;;;;;;5073775;28;20431;-84
2024/03/17 10:26:51;;;;;;;3.37;2.40;;;11.00;99.30;;;;;;5051157;28;20436;-85
2024/03/17 10:29:35;;;;;;;2.97;2.47;;;11.00;99.30;;;;;;5086792;28;20449;-83
2024/03/17 10:32:18;;;;;;;3.80;2.63;;;11.10;99.30;;;;;;5047612;28;20451;-83
2024/03/17 10:34:48;;;;;;;3.73;2.30;;;11.10;99.30;;;;;;5073744;28;20461;-85
2024/03/17 10:37:27;;;;;;;2.87;2.30;;;11.10;99.30;;;;;;5060437;28;21077;-84
2024/03/17 10:39:59;;;;;;;4.00;2.40;;;11.10;99.30;;;;;;5040180;28;20879;-84
2024/03/17 10:42:31;;;;;;;3.13;2.60;;;11.10;99.30;;;;;;5050054;28;20445;-84
2024/03/17 10:44:57;;;;;;;3.63;2.50;;;11.20;99.40;;;;;;5055504;28;20448;-83
2024/03/17 10:47:25;;;;;;;2.90;2.57;;;11.10;99.30;;;;;;5069736;28;20461;-84
2024/03/17 10:49:53;;;;;;;4.50;2.67;;;11.20;99.30;;;;;;5054714;28;20544;-83
2024/03/17 10:52:25;;;;;;;2.60;2.07;;;11.20;99.40;;;;;;5038760;28;20513;-84
2024/03/17 10:54:54;;;;;;;3.83;2.10;;;11.20;99.40;;;;;;5063592;28;20553;-84
2024/03/17 10:57:35;;;;;;;3.20;2.43;;;11.20;99.40;;;;;;5068017;28;20421;-84
2024/03/17 11:00:04;;;;;;;3.33;2.57;;;11.30;99.40;;;;;;5078539;28;20479;-81
2024/03/17 11:02:36;;;;;;;5.90;2.10;;;11.20;99.30;;;;;;5098473;28;20956;-81
2024/03/17 11:05:16;;;;;;;3.80;2.83;;;11.30;99.30;;;;;;5054352;28;21087;-84
2024/03/17 11:07:46;;;;;;;2.93;2.63;;;11.30;99.60;;;;;;5075670;28;20443;-84
2024/03/17 11:10:33;;;;;;;4.10;2.87;;;11.30;99.30;;;;;;5058115;28;21042;-83
2024/03/17 11:13:02;;;;;;;3.90;2.37;;;11.30;99.30;;;;;;5070550;28;20477;-83
2024/03/17 11:15:34;;;;;;;3.10;2.60;;;11.30;99.30;;;;;;5050210;28;20462;-82
2024/03/17 11:18:11;;;;;;;2.10;1.90;;;11.30;99.20;;;;;;5080146;28;20456;-84
2024/03/17 11:20:39;;;;;;;2.37;2.17;;;11.40;99.30;;;;;;5060791;28;20453;-82
2024/03/17 11:23:09;;;;;;;3.33;2.63;;;11.40;99.30;;;;;;5041307;28;20482;-83
2024/03/17 11:25:40;;;;;;;2.93;2.27;;;11.40;99.30;;;;;;5082943;28;20516;-82
2024/03/17 11:28:10;;;;;;;3.00;2.70;;;11.40;99.20;;;;;;5071205;28;20452;-84
2024/03/17 11:30:46;;;;;;;2.70;2.43;;;11.50;99.20;;;;;;5064820;28;20425;-82
2024/03/17 11:33:30;;;;;;;3.80;2.47;;;11.50;99.20;;;;;;5060069;28;20512;-82
2024/03/17 11:36:16;;;;;;;2.80;2.17;;;11.50;99.20;;;;;;5065920;22;20473;-71
2024/03/17 11:42:16;;;;;;;2.50;2.30;;;11.60;99.20;;;;;;4974967;28;20456;-70
2024/03/17 11:45:09;;;;;;;2.80;2.47;;;11.60;99.20;;;;;;4991985;28;20881;-71
2024/03/17 11:47:42;;;;;;;4.50;2.70;;;11.60;99.20;;;;;;4992711;28;20480;-71
2024/03/17 11:50:12;;;;;;;4.30;2.30;;;11.60;99.10;;;;;;4999350;28;20831;-71
2024/03/17 11:52:44;;;;;;;3.50;3.00;;;11.60;99.10;;;;;;4997059;28;20475;-71
2024/03/17 11:55:28;;;;;;;4.87;2.80;;;11.60;99.10;;;;;;4997073;28;20829;-71
2024/03/17 11:57:57;;;;;;;3.90;2.03;;;11.70;99.10;;;;;;4998502;28;20464;-72
2024/03/17 12:00:26;;;;;;;3.10;2.80;;;11.70;99.10;;;;;;4996252;28;21281;-72
2024/03/17 12:02:52;;;;;;;4.83;2.70;;;11.70;99.10;;;;;;4997490;28;20456;-72
2024/03/17 12:05:21;;;;;;;4.23;3.07;;;11.80;99.10;;;;;;4997091;28;20459;-72
2024/03/17 12:07:50;;;;;;;2.70;2.40;;;11.80;99.10;;;;;;4980837;28;20908;-72
2024/03/17 12:10:20;;;;;;;2.90;2.20;;;11.80;99.10;;;;;;4995429;28;20461;-72
2024/03/17 12:12:47;;;;;;;3.57;2.67;;;11.80;99.10;;;;;;4965995;28;20558;-67
2024/03/17 12:15:21;;;;;;;2.60;2.40;;;11.80;99.10;;;;;;5015225;28;20456;-70
2024/03/17 12:17:53;;;;;;;3.80;2.67;;;11.90;99.20;;;;;;4997442;28;20879;-73
2024/03/17 12:20:21;;;;;;;3.03;2.47;;;11.90;99.10;;;;;;5008498;28;20570;-71
2024/03/17 12:22:48;;;;;;;3.27;2.97;;;11.90;99.20;;;;;;4996907;28;20432;-72
2024/03/17 12:25:25;;;;;;;3.50;2.57;;;11.90;99.10;;;;;;5014272;28;20436;-72
2024/03/17 12:27:51;;;;;;;3.07;2.80;;;12.00;99.10;;;;;;4997243;28;20416;-71
2024/03/17 12:30:18;;;;;;;3.63;2.83;;;12.00;99.20;;;;;;4999325;28;20440;-73
2024/03/17 12:32:46;;;;;;;2.90;2.60;;;12.00;99.10;;;;;;4983164;28;20538;-71
2024/03/17 12:35:15;;;;;;;4.03;2.30;;;12.00;99.10;;;;;;4984303;28;20443;-72
2024/03/17 12:37:44;;;;;;;2.77;2.57;;;12.00;99.10;;;;;;4999483;28;20440;-72
2024/03/17 12:40:22;;;;;;;4.50;2.90;;;12.10;99.20;;;;;;4979175;28;20444;-73
2024/03/17 12:42:50;;;;;;;5.67;2.87;;;12.10;99.20;;;;;;4996827;28;20808;-72
2024/03/17 12:45:20;;;;;;;2.40;2.17;;;12.10;99.20;;;;;;4996766;28;20429;-73
2024/03/17 12:47:50;;;;;;;2.80;2.50;;;12.20;99.10;;;;;;5000384;28;20448;-72
2024/03/17 12:50:17;;;;;;;4.90;2.40;;;12.20;99.10;;;;;;4998725;28;21371;-72
2024/03/17 12:52:55;;;;;;;3.77;3.20;;;12.20;99.10;;;;;;5010518;28;20852;-73
2024/03/17 13:01:04;;;;;;;4.57;3.00;;;12.20;99.00;;;;;;5015041;28;20473;-73
2024/03/17 13:03:36;;;;;;;2.97;2.67;;;12.30;99.10;;;;;;4999996;28;20436;-72
2024/03/17 13:06:06;;;;;;;3.87;2.97;;;12.30;99.10;;;;;;4995768;28;21115;-70